Time;durP1;ratioP1;P1;durP2;ratioP2;P2;SDS_P1;SDS_P2;PMS_P1;PMS_P2;Temp;Humidity;BMP_temperature;BMP_pressure;BME280_temperature;BME280_humidity;BME280_pressure;Samples;Min_cycle;Max_cycle;Signal;HPM_P1;HPM_P2
2023/03/20 00:00:21;;;;;;;2.33;2.13;;;19.00;50.60;;;;;;4940390;29;20210;-78
2023/03/20 00:02:48;;;;;;;2.28;2.08;;;19.00;50.60;;;;;;4940225;29;20650;-78
2023/03/20 00:05:18;;;;;;;2.50;2.30;;;19.00;50.50;;;;;;4940022;29;20665;-78
2023/03/20 00:07:46;;;;;;;2.20;2.00;;;19.00;50.50;;;;;;4940133;29;20195;-78
2023/03/20 00:10:13;;;;;;;2.10;1.90;;;19.00;50.70;;;;;;4939634;29;20654;-78
2023/03/20 00:12:42;;;;;;;2.05;1.85;;;19.00;50.60;;;;;;4939523;29;20202;-78
2023/03/20 00:15:26;;;;;;;4.93;2.28;;;19.00;50.70;;;;;;4939507;29;20222;-78
2023/03/20 00:17:54;;;;;;;2.85;2.00;;;19.00;50.70;;;;;;4939571;29;20265;-78
2023/03/20 00:20:21;;;;;;;2.08;1.90;;;19.00;50.80;;;;;;4939256;29;20729;-78
2023/03/20 00:22:49;;;;;;;2.05;1.95;;;18.90;50.70;;;;;;4939646;29;20214;-78
2023/03/20 00:25:17;;;;;;;2.00;1.80;;;18.90;50.70;;;;;;4939532;29;20317;-78
2023/03/20 00:27:45;;;;;;;2.08;1.88;;;18.90;51.40;;;;;;4939758;29;20199;-78
2023/03/20 00:30:28;;;;;;;2.03;1.92;;;18.90;50.80;;;;;;4939048;29;20207;-78
2023/03/20 00:32:56;;;;;;;1.70;1.60;;;18.90;50.80;;;;;;4938946;28;20199;-78
2023/03/20 00:35:25;;;;;;;1.77;1.63;;;18.90;50.80;;;;;;4939033;29;20234;-78
2023/03/20 00:37:52;;;;;;;2.10;1.90;;;18.90;50.80;;;;;;4938885;29;20222;-78
2023/03/20 00:40:19;;;;;;;2.28;1.75;;;18.90;50.80;;;;;;4940080;29;20557;-78
2023/03/20 00:42:50;;;;;;;2.10;1.92;;;18.80;50.70;;;;;;4939248;29;20678;-78
2023/03/20 00:45:19;;;;;;;2.03;1.92;;;18.80;50.70;;;;;;4923865;29;20219;-79
2023/03/20 00:47:48;;;;;;;2.60;1.98;;;18.80;50.70;;;;;;4923913;29;20615;-79
2023/03/20 00:50:17;;;;;;;1.77;1.60;;;18.80;50.70;;;;;;4944913;29;20210;-79
2023/03/20 00:52:44;;;;;;;2.20;2.00;;;18.80;50.70;;;;;;4948711;29;20266;-79
2023/03/20 00:55:12;;;;;;;4.25;1.67;;;18.80;50.70;;;;;;4947717;29;20219;-79
2023/03/20 00:57:42;;;;;;;2.10;1.90;;;18.80;50.70;;;;;;4930028;29;20229;-79
2023/03/20 01:00:23;;;;;;;1.92;1.60;;;18.80;50.80;;;;;;4944571;29;20199;-79
2023/03/20 01:02:50;;;;;;;1.90;1.80;;;18.80;50.80;;;;;;4944407;28;20210;-79
2023/03/20 01:05:18;;;;;;;2.53;1.60;;;18.80;50.90;;;;;;4961352;29;20207;-79
2023/03/20 01:07:45;;;;;;;1.75;1.65;;;18.80;50.80;;;;;;4944896;29;20195;-79
2023/03/20 01:10:13;;;;;;;2.08;1.88;;;18.80;50.90;;;;;;4944234;29;20205;-79
2023/03/20 01:12:40;;;;;;;2.25;1.65;;;18.70;50.80;;;;;;4944641;29;20221;-79
2023/03/20 01:15:16;;;;;;;1.70;1.60;;;18.70;50.80;;;;;;4944129;29;20613;-79
2023/03/20 01:17:45;;;;;;;3.17;1.70;;;18.70;50.70;;;;;;4944237;29;20234;-79
2023/03/20 01:20:17;;;;;;;1.80;1.70;;;18.70;50.70;;;;;;4944047;29;20278;-79
2023/03/20 01:22:44;;;;;;;2.15;1.65;;;18.70;50.80;;;;;;4979512;23;20650;-77
2023/03/20 01:25:11;;;;;;;1.80;1.70;;;18.70;50.70;;;;;;4977394;28;20217;-76
2023/03/20 01:27:38;;;;;;;2.17;1.92;;;18.70;50.70;;;;;;4977519;28;20201;-76
2023/03/20 01:30:22;;;;;;;1.80;1.70;;;18.70;50.70;;;;;;4984117;28;20198;-76
2023/03/20 01:32:50;;;;;;;2.75;1.80;;;18.70;50.80;;;;;;4994851;28;20222;-76
2023/03/20 01:35:20;;;;;;;2.63;1.98;;;18.70;51.40;;;;;;4977539;28;20202;-76
2023/03/20 01:37:48;;;;;;;1.75;1.65;;;18.70;50.90;;;;;;4976839;28;20264;-76
2023/03/20 01:40:30;;;;;;;2.50;2.00;;;18.70;50.90;;;;;;4960964;28;20274;-76
2023/03/20 01:42:57;;;;;;;1.83;1.73;;;18.60;50.90;;;;;;4977743;28;20195;-76
2023/03/20 01:45:28;;;;;;;2.97;1.70;;;18.70;50.80;;;;;;4977212;28;20198;-76
2023/03/20 01:47:57;;;;;;;2.13;1.90;;;18.70;50.90;;;;;;4961777;28;20184;-76
2023/03/20 01:50:29;;;;;;;2.15;1.63;;;18.60;50.70;;;;;;4976992;28;20198;-76
2023/03/20 01:53:13;;;;;;;2.03;1.83;;;18.60;50.80;;;;;;4977197;28;20226;-76
2023/03/20 01:55:45;;;;;;;1.80;1.70;;;18.60;50.80;;;;;;4977573;28;20384;-76
2023/03/20 01:58:16;;;;;;;2.63;1.80;;;18.60;50.90;;;;;;4977261;28;20593;-76
2023/03/20 02:00:43;;;;;;;1.63;1.52;;;18.60;50.90;;;;;;4977902;28;20219;-76
2023/03/20 02:03:15;;;;;;;2.08;1.70;;;18.60;50.80;;;;;;4963653;28;20210;-76
2023/03/20 02:06:08;;;;;;;1.75;1.65;;;18.60;50.80;;;;;;4956524;28;20232;-76
2023/03/20 02:08:55;;;;;;;2.40;1.70;;;18.60;50.80;;;;;;4981397;28;20198;-76
2023/03/20 02:11:24;;;;;;;1.60;1.50;;;18.50;50.70;;;;;;4981177;28;20209;-76
2023/03/20 02:13:52;;;;;;;1.73;1.63;;;18.60;50.90;;;;;;4981754;28;20325;-76
2023/03/20 02:16:20;;;;;;;2.20;1.58;;;18.50;50.80;;;;;;4981592;28;20218;-76
2023/03/20 02:19:00;;;;;;;2.10;1.60;;;18.60;50.90;;;;;;4981121;28;20210;-76
2023/03/20 02:22:04;;;;;;;1.85;1.63;;;18.50;50.80;;;;;;4980277;28;20661;-76
2023/03/20 02:25:03;;;;;;;1.52;1.42;;;18.50;50.80;;;;;;4979998;28;20272;-76
2023/03/20 02:27:33;;;;;;;2.72;1.60;;;18.50;50.80;;;;;;4973736;28;20197;-76
2023/03/20 02:30:16;;;;;;;1.67;1.58;;;18.50;50.80;;;;;;4978923;28;20293;-76
2023/03/20 02:33:15;;;;;;;1.70;1.60;;;18.50;50.90;;;;;;4979769;28;20202;-76
2023/03/20 02:36:21;;;;;;;1.77;1.67;;;18.50;50.90;;;;;;4979506;28;20664;-78
2023/03/20 02:39:13;;;;;;;2.25;1.50;;;18.50;50.90;;;;;;4979622;28;20284;-78
2023/03/20 02:41:43;;;;;;;2.05;1.40;;;18.50;50.90;;;;;;4979846;28;20201;-78
2023/03/20 02:44:12;;;;;;;1.60;1.50;;;18.50;50.90;;;;;;4963023;28;20218;-78
2023/03/20 02:46:45;;;;;;;2.13;1.40;;;18.50;50.80;;;;;;4978755;28;20198;-78
2023/03/20 02:49:22;;;;;;;1.60;1.50;;;18.50;50.90;;;;;;4964348;28;20217;-78
2023/03/20 02:51:52;;;;;;;1.70;1.60;;;18.40;50.90;;;;;;4979009;28;20186;-78
2023/03/20 02:54:24;;;;;;;1.60;1.50;;;18.40;50.90;;;;;;4962211;28;20301;-77
2023/03/20 02:56:59;;;;;;;1.50;1.40;;;18.40;50.90;;;;;;4978645;28;20190;-77
2023/03/20 02:59:29;;;;;;;2.60;1.70;;;18.50;50.90;;;;;;4977802;28;20667;-77
2023/03/20 03:01:59;;;;;;;1.65;1.55;;;18.40;50.90;;;;;;4978190;28;20293;-77
2023/03/20 03:04:29;;;;;;;1.55;1.45;;;18.40;50.80;;;;;;4977658;28;20230;-77
2023/03/20 03:06:57;;;;;;;1.60;1.50;;;18.40;50.90;;;;;;4977868;28;20217;-77
2023/03/20 03:09:27;;;;;;;1.30;1.20;;;18.40;50.90;;;;;;4978946;28;20202;-77
2023/03/20 03:11:56;;;;;;;2.38;1.55;;;18.40;50.90;;;;;;4979149;28;20206;-77
2023/03/20 03:14:29;;;;;;;1.70;1.60;;;18.40;50.90;;;;;;4977851;28;20222;-77
2023/03/20 03:16:57;;;;;;;2.13;1.40;;;18.40;50.90;;;;;;4978375;28;20209;-77
2023/03/20 03:19:24;;;;;;;2.13;1.42;;;18.40;50.80;;;;;;4962521;28;20217;-77
2023/03/20 03:21:51;;;;;;;1.88;1.23;;;18.40;50.90;;;;;;4978456;28;20214;-77
2023/03/20 03:24:23;;;;;;;1.48;1.38;;;18.40;50.90;;;;;;4977849;28;20214;-77
2023/03/20 03:26:52;;;;;;;1.58;1.48;;;18.40;50.90;;;;;;4962464;28;20302;-77
2023/03/20 03:29:20;;;;;;;1.30;1.23;;;18.30;50.90;;;;;;4977346;28;20675;-77
2023/03/20 03:31:47;;;;;;;1.55;1.45;;;18.30;50.90;;;;;;4978044;28;20235;-77
2023/03/20 03:34:16;;;;;;;1.75;1.30;;;18.30;50.90;;;;;;4977514;28;20214;-77
2023/03/20 03:36:46;;;;;;;1.23;1.20;;;18.30;50.90;;;;;;4977782;28;20268;-77
2023/03/20 03:39:17;;;;;;;1.27;1.20;;;18.30;50.80;;;;;;4977151;28;20228;-77
2023/03/20 03:41:45;;;;;;;1.40;1.30;;;18.30;50.90;;;;;;4977395;28;20202;-77
2023/03/20 03:44:15;;;;;;;1.20;1.20;;;18.30;50.90;;;;;;4977139;28;20674;-77
2023/03/20 03:46:45;;;;;;;1.38;1.20;;;18.30;51.00;;;;;;4962100;28;20723;-77
2023/03/20 03:49:14;;;;;;;1.30;1.20;;;18.30;51.00;;;;;;4976987;28;20202;-77
2023/03/20 03:51:43;;;;;;;1.15;1.05;;;18.30;50.90;;;;;;4977644;28;20202;-77
2023/03/20 03:54:13;;;;;;;1.20;1.20;;;18.30;50.90;;;;;;4978886;28;20222;-77
2023/03/20 03:56:41;;;;;;;1.40;1.30;;;18.30;50.90;;;;;;4978694;28;20199;-77
2023/03/20 03:59:11;;;;;;;1.27;1.13;;;18.30;50.90;;;;;;4963504;28;20222;-77
2023/03/20 04:01:43;;;;;;;1.30;1.20;;;18.30;50.90;;;;;;4982094;28;20254;-77
2023/03/20 04:04:10;;;;;;;1.08;1.08;;;18.30;50.80;;;;;;4981662;28;20229;-77
2023/03/20 04:06:38;;;;;;;1.92;1.35;;;18.20;50.70;;;;;;4963803;28;20208;-77
2023/03/20 04:09:06;;;;;;;1.00;1.00;;;18.20;50.70;;;;;;4979162;28;20190;-77
2023/03/20 04:11:34;;;;;;;1.10;1.10;;;18.30;50.80;;;;;;4962941;28;20198;-77
2023/03/20 04:14:02;;;;;;;1.17;1.17;;;18.30;50.80;;;;;;4978271;28;20218;-78
2023/03/20 04:16:30;;;;;;;1.15;1.10;;;18.20;50.70;;;;;;4981486;28;20215;-78
2023/03/20 04:19:00;;;;;;;1.23;1.20;;;18.30;50.80;;;;;;4965562;28;20575;-78
2023/03/20 04:21:28;;;;;;;1.20;1.10;;;18.30;50.80;;;;;;4964671;28;20240;-78
2023/03/20 04:23:55;;;;;;;1.08;0.98;;;18.30;50.80;;;;;;4981116;28;20214;-78
2023/03/20 04:26:23;;;;;;;1.00;1.00;;;18.30;50.80;;;;;;4983565;28;20197;-78
2023/03/20 04:28:51;;;;;;;1.20;1.10;;;18.30;50.80;;;;;;4984119;28;20197;-78
2023/03/20 04:31:21;;;;;;;1.05;1.05;;;18.30;50.70;;;;;;4986022;28;20189;-78
2023/03/20 04:34:04;;;;;;;1.85;1.08;;;18.30;50.70;;;;;;4984548;28;20651;-78
2023/03/20 04:36:55;;;;;;;0.88;0.88;;;18.30;50.70;;;;;;4982801;28;20293;-78
2023/03/20 04:39:29;;;;;;;1.55;1.10;;;18.30;50.80;;;;;;4970335;28;20214;-78
2023/03/20 04:41:56;;;;;;;1.27;1.15;;;18.40;50.70;;;;;;4984807;28;20202;-78
2023/03/20 04:44:23;;;;;;;1.10;1.10;;;18.40;50.60;;;;;;4968585;28;20712;-78
2023/03/20 04:46:51;;;;;;;1.15;0.90;;;18.50;50.70;;;;;;4969590;28;20233;-76
2023/03/20 04:49:21;;;;;;;1.00;1.00;;;18.50;50.50;;;;;;4969242;28;20190;-76
2023/03/20 04:51:48;;;;;;;1.27;0.90;;;18.50;50.50;;;;;;4980660;28;20205;-76
2023/03/20 04:54:20;;;;;;;1.13;1.10;;;18.50;50.40;;;;;;4978968;28;20225;-76
2023/03/20 04:56:47;;;;;;;1.00;1.00;;;18.50;50.30;;;;;;4980079;28;20198;-77
2023/03/20 04:59:18;;;;;;;1.02;1.02;;;18.50;50.30;;;;;;4978170;28;20222;-75
2023/03/20 05:01:45;;;;;;;0.90;0.90;;;18.50;50.10;;;;;;4978629;28;20197;-76
2023/03/20 05:04:13;;;;;;;1.02;1.02;;;18.60;50.30;;;;;;4968541;28;20413;-76
2023/03/20 05:06:42;;;;;;;1.00;1.00;;;18.50;50.10;;;;;;4961882;28;20241;-75
2023/03/20 05:09:10;;;;;;;1.08;0.93;;;18.50;50.00;;;;;;4978022;28;20290;-78
2023/03/20 05:11:38;;;;;;;1.00;1.00;;;18.50;50.00;;;;;;4977213;28;20265;-76
2023/03/20 05:14:05;;;;;;;0.98;0.98;;;18.50;50.00;;;;;;4978508;28;20214;-79
2023/03/20 05:16:44;;;;;;;1.15;0.90;;;18.50;49.90;;;;;;4976901;28;20190;-79
2023/03/20 05:19:28;;;;;;;0.90;0.90;;;18.50;49.90;;;;;;4977273;28;20285;-79
2023/03/20 05:22:12;;;;;;;0.90;0.90;;;18.50;50.10;;;;;;4977585;28;20663;-79
2023/03/20 05:24:52;;;;;;;1.00;1.00;;;18.50;50.20;;;;;;4963515;28;20569;-79
2023/03/20 05:27:37;;;;;;;2.20;1.10;;;18.50;50.30;;;;;;4980283;28;20652;-78
2023/03/20 05:30:26;;;;;;;1.30;1.20;;;18.50;50.20;;;;;;4979397;28;20196;-79
2023/03/20 05:33:12;;;;;;;0.93;0.93;;;18.50;50.20;;;;;;4979512;28;20245;-78
2023/03/20 05:35:53;;;;;;;1.15;1.00;;;18.50;50.40;;;;;;4962847;28;20202;-78
2023/03/20 05:38:41;;;;;;;1.17;1.00;;;18.50;50.60;;;;;;4977598;28;20210;-78
2023/03/20 05:41:35;;;;;;;0.90;0.90;;;18.50;50.90;;;;;;4966897;28;20568;-78
2023/03/20 05:44:12;;;;;;;1.52;0.98;;;18.50;51.00;;;;;;4980010;28;20305;-78
2023/03/20 05:47:09;;;;;;;1.98;1.10;;;18.50;51.10;;;;;;4930663;28;20307;-78
2023/03/20 05:49:55;;;;;;;1.92;0.88;;;18.60;51.00;;;;;;4978275;28;20270;-78
2023/03/20 05:52:29;;;;;;;1.65;0.95;;;18.60;51.10;;;;;;4977226;28;20194;-78
2023/03/20 05:55:19;;;;;;;0.80;0.80;;;18.60;51.10;;;;;;4977272;28;20193;-78
2023/03/20 05:58:10;;;;;;;1.27;1.10;;;18.60;50.70;;;;;;4977561;28;20642;-78
2023/03/20 06:00:42;;;;;;;0.93;0.85;;;18.60;50.70;;;;;;4979386;28;20201;-78
2023/03/20 06:03:38;;;;;;;1.05;0.95;;;18.60;50.50;;;;;;4978762;28;20261;-79
2023/03/20 06:06:12;;;;;;;1.40;1.05;;;18.60;50.50;;;;;;4980347;28;20253;-80
2023/03/20 06:08:40;;;;;;;1.15;0.90;;;18.60;50.50;;;;;;4982831;28;20205;-80
2023/03/20 06:11:10;;;;;;;1.08;1.05;;;18.60;50.50;;;;;;4982026;28;20202;-80
2023/03/20 06:13:39;;;;;;;0.98;0.80;;;18.60;50.50;;;;;;4966230;28;20304;-81
2023/03/20 06:16:08;;;;;;;0.80;0.80;;;18.60;50.40;;;;;;4980626;28;20257;-81
2023/03/20 06:18:37;;;;;;;1.13;1.10;;;18.60;50.30;;;;;;4964862;28;20306;-80
2023/03/20 06:21:06;;;;;;;1.10;1.00;;;18.60;50.30;;;;;;4980154;28;20204;-81
2023/03/20 06:23:33;;;;;;;1.00;1.00;;;18.60;50.20;;;;;;4977140;28;20613;-78
2023/03/20 06:26:02;;;;;;;2.28;1.05;;;18.60;50.30;;;;;;4975803;28;20662;-78
2023/03/20 06:28:35;;;;;;;1.42;1.33;;;18.60;50.30;;;;;;4976158;28;20198;-78
2023/03/20 06:31:08;;;;;;;1.30;1.20;;;18.60;50.20;;;;;;4975595;28;20198;-78
2023/03/20 06:33:36;;;;;;;0.93;0.93;;;18.60;50.10;;;;;;4975910;28;20218;-79
2023/03/20 06:36:04;;;;;;;1.77;1.30;;;18.60;50.10;;;;;;4979903;28;20206;-79
2023/03/20 06:38:32;;;;;;;1.67;1.48;;;18.60;50.00;;;;;;4961958;28;20264;-79
2023/03/20 06:41:05;;;;;;;1.10;1.10;;;18.70;50.10;;;;;;4975856;28;20260;-79
2023/03/20 06:43:34;;;;;;;1.08;1.00;;;18.70;50.00;;;;;;4976018;28;20241;-79
2023/03/20 06:46:01;;;;;;;2.50;1.13;;;18.80;49.80;;;;;;4975471;28;20565;-79
2023/03/20 06:48:31;;;;;;;1.30;1.10;;;18.90;49.50;;;;;;4959328;28;20190;-79
2023/03/20 06:50:58;;;;;;;1.20;1.10;;;18.90;49.40;;;;;;4975562;28;20194;-79
2023/03/20 06:53:33;;;;;;;1.13;1.10;;;19.00;49.40;;;;;;4976286;28;20716;-79
2023/03/20 06:56:09;;;;;;;2.08;1.50;;;19.00;49.40;;;;;;4960608;28;20281;-79
2023/03/20 06:58:41;;;;;;;1.65;1.20;;;19.10;49.30;;;;;;4975120;28;20233;-79
2023/03/20 07:01:12;;;;;;;1.25;1.15;;;19.10;49.20;;;;;;4975090;28;20208;-79
2023/03/20 07:03:40;;;;;;;1.48;1.30;;;19.20;49.80;;;;;;4975269;28;20588;-79
2023/03/20 07:06:10;;;;;;;2.03;1.35;;;19.20;49.10;;;;;;4974881;28;20205;-79
2023/03/20 07:08:37;;;;;;;1.20;1.20;;;19.30;49.10;;;;;;4975220;28;20198;-79
2023/03/20 07:11:05;;;;;;;1.20;1.10;;;19.30;49.00;;;;;;4975385;28;20194;-79
2023/03/20 07:13:32;;;;;;;1.35;1.20;;;19.40;49.00;;;;;;4975371;28;20241;-79
2023/03/20 07:16:09;;;;;;;3.60;1.27;;;19.50;48.80;;;;;;4976612;28;20198;-79
2023/03/20 07:18:40;;;;;;;1.05;1.00;;;19.60;48.70;;;;;;4975621;28;20229;-79
2023/03/20 07:24:02;;;;;;;1.10;1.00;;;19.70;48.40;;;;;;4920081;29;20633;-78
2023/03/20 07:26:31;;;;;;;1.20;1.10;;;19.80;48.00;;;;;;4902617;29;20658;-78
2023/03/20 07:28:58;;;;;;;1.35;1.17;;;19.80;47.90;;;;;;4918286;29;20192;-78
2023/03/20 07:31:29;;;;;;;0.90;0.90;;;19.80;47.70;;;;;;4933797;29;20204;-80
2023/03/20 07:34:09;;;;;;;1.02;0.95;;;19.90;47.50;;;;;;4904476;29;20219;-80
2023/03/20 07:36:36;;;;;;;1.25;1.15;;;19.90;47.50;;;;;;4902460;29;20208;-80
2023/03/20 07:39:04;;;;;;;1.40;1.30;;;19.90;47.30;;;;;;4902588;29;20240;-79
2023/03/20 07:41:32;;;;;;;0.88;0.77;;;19.90;47.10;;;;;;4903419;29;20256;-79
2023/03/20 07:44:03;;;;;;;0.98;0.93;;;19.90;47.00;;;;;;4935671;29;20228;-79
2023/03/20 07:46:32;;;;;;;1.05;1.00;;;19.90;47.00;;;;;;4920628;29;20206;-79
2023/03/20 07:49:00;;;;;;;1.42;1.00;;;19.90;47.10;;;;;;4903956;29;20679;-81
2023/03/20 07:51:28;;;;;;;1.10;1.10;;;20.00;47.20;;;;;;4903503;29;20307;-81
2023/03/20 07:53:55;;;;;;;1.45;1.35;;;20.00;47.20;;;;;;4903184;29;20224;-81
2023/03/20 07:56:22;;;;;;;1.27;1.17;;;20.00;47.10;;;;;;4903467;29;20192;-80
2023/03/20 07:58:49;;;;;;;1.40;1.30;;;20.00;47.50;;;;;;4903469;29;20204;-80
2023/03/20 08:01:16;;;;;;;0.82;0.82;;;20.10;46.80;;;;;;4920131;29;20270;-80
2023/03/20 08:03:45;;;;;;;1.00;0.90;;;20.10;46.70;;;;;;4934992;29;20220;-81
2023/03/20 08:06:12;;;;;;;1.42;1.10;;;20.10;46.70;;;;;;4903411;29;20204;-81
2023/03/20 08:08:39;;;;;;;0.98;0.98;;;20.10;46.70;;;;;;4903649;29;20215;-81
2023/03/20 08:11:06;;;;;;;1.23;0.88;;;20.20;46.80;;;;;;4935950;29;20298;-81
2023/03/20 08:13:33;;;;;;;0.95;0.95;;;20.20;46.80;;;;;;4936354;29;20220;-81
2023/03/20 08:16:00;;;;;;;1.00;1.00;;;20.20;46.80;;;;;;4937028;29;20206;-81
2023/03/20 08:18:27;;;;;;;0.80;0.80;;;20.20;46.60;;;;;;4938737;29;20227;-81
2023/03/20 08:20:56;;;;;;;1.08;1.08;;;20.20;46.40;;;;;;4920289;29;20216;-81
2023/03/20 08:23:23;;;;;;;0.80;0.80;;;20.20;46.50;;;;;;4902993;29;20242;-81
2023/03/20 08:25:50;;;;;;;0.90;0.90;;;20.20;46.60;;;;;;4904005;29;20572;-81
2023/03/20 08:28:17;;;;;;;2.22;0.90;;;20.30;46.60;;;;;;4903456;29;20208;-81
2023/03/20 08:30:45;;;;;;;1.20;1.10;;;20.30;46.40;;;;;;4903951;29;20200;-81
2023/03/20 08:33:12;;;;;;;0.85;0.70;;;20.30;46.40;;;;;;4936310;29;20272;-81
2023/03/20 08:35:40;;;;;;;1.15;1.00;;;20.20;46.40;;;;;;4905058;29;20206;-81
2023/03/20 08:38:09;;;;;;;1.58;1.10;;;20.20;46.70;;;;;;4935448;29;20200;-81
2023/03/20 08:40:37;;;;;;;1.10;1.00;;;20.20;46.90;;;;;;4903633;29;20220;-81
2023/03/20 08:43:04;;;;;;;0.98;0.93;;;20.10;46.90;;;;;;4935897;29;20228;-81
2023/03/20 08:45:31;;;;;;;1.40;1.15;;;20.10;47.00;;;;;;4903717;29;20234;-81
2023/03/20 08:47:58;;;;;;;1.00;0.90;;;20.20;47.10;;;;;;4935717;29;20236;-81
2023/03/20 08:50:26;;;;;;;1.05;0.98;;;20.20;47.00;;;;;;4904185;29;20192;-81
2023/03/20 08:52:53;;;;;;;1.20;0.93;;;20.20;46.80;;;;;;4905140;29;20207;-81
2023/03/20 08:55:22;;;;;;;0.90;0.90;;;20.30;47.00;;;;;;4904658;29;20204;-81
2023/03/20 08:57:49;;;;;;;1.27;1.20;;;20.30;46.70;;;;;;4904820;29;20211;-81
2023/03/20 09:00:19;;;;;;;0.93;0.93;;;20.30;46.60;;;;;;4936150;29;20224;-81
2023/03/20 09:02:46;;;;;;;0.90;0.90;;;20.30;46.50;;;;;;4905637;29;20204;-81
2023/03/20 09:05:13;;;;;;;0.77;0.77;;;20.40;46.50;;;;;;4920916;29;20687;-81
2023/03/20 09:07:41;;;;;;;0.82;0.82;;;20.40;46.30;;;;;;4905470;29;20204;-81
2023/03/20 09:10:08;;;;;;;1.25;1.15;;;20.50;46.40;;;;;;4921874;29;20205;-81
2023/03/20 09:12:37;;;;;;;1.98;1.00;;;20.60;46.30;;;;;;4940522;29;20200;-81
2023/03/20 09:15:05;;;;;;;0.80;0.80;;;20.60;46.30;;;;;;4932278;29;20212;-81
2023/03/20 09:17:33;;;;;;;0.90;0.90;;;20.70;46.30;;;;;;4924474;29;20192;-81
2023/03/20 09:20:02;;;;;;;0.80;0.80;;;20.70;46.00;;;;;;4925192;29;20216;-81
2023/03/20 09:22:29;;;;;;;0.90;0.90;;;20.80;46.00;;;;;;4956212;29;20275;-81
2023/03/20 09:24:58;;;;;;;0.90;0.90;;;20.90;46.20;;;;;;4924335;29;20283;-81
2023/03/20 09:27:25;;;;;;;1.00;1.00;;;20.80;45.80;;;;;;4924001;29;20224;-81
2023/03/20 09:29:54;;;;;;;1.60;0.90;;;20.90;45.80;;;;;;4904298;29;20200;-81
2023/03/20 09:32:21;;;;;;;0.90;0.90;;;20.90;45.70;;;;;;4909307;29;20204;-81
2023/03/20 09:34:48;;;;;;;0.80;0.80;;;20.90;45.60;;;;;;4905746;29;20224;-81
2023/03/20 09:37:15;;;;;;;1.08;0.70;;;20.90;45.60;;;;;;4920967;29;20275;-81
2023/03/20 09:39:42;;;;;;;1.38;0.98;;;21.00;45.50;;;;;;4906331;29;20216;-81
2023/03/20 09:42:18;;;;;;;0.70;0.70;;;21.00;45.50;;;;;;4911580;29;20188;-80
2023/03/20 09:44:50;;;;;;;0.90;0.90;;;21.00;45.40;;;;;;4924591;29;20215;-81
2023/03/20 09:47:22;;;;;;;0.80;0.80;;;21.00;45.50;;;;;;4956973;29;20193;-81
2023/03/20 09:49:57;;;;;;;1.10;0.75;;;20.90;45.40;;;;;;4920552;29;20282;-81
2023/03/20 09:52:26;;;;;;;0.85;0.85;;;20.90;45.40;;;;;;4941781;29;20196;-81
2023/03/20 09:54:55;;;;;;;0.80;0.80;;;20.90;45.40;;;;;;4908250;29;20227;-80
2023/03/20 09:57:24;;;;;;;0.75;0.75;;;20.90;45.50;;;;;;4891309;29;20659;-80
2023/03/20 09:59:53;;;;;;;0.90;0.90;;;20.90;45.50;;;;;;4905090;29;20264;-80
2023/03/20 10:02:23;;;;;;;1.08;1.00;;;20.90;45.40;;;;;;4935503;29;20204;-80
2023/03/20 10:04:51;;;;;;;1.45;0.80;;;20.90;45.40;;;;;;4904165;29;20637;-80
2023/03/20 10:07:18;;;;;;;0.80;0.80;;;20.90;45.40;;;;;;4934974;29;20215;-81
2023/03/20 10:09:45;;;;;;;0.80;0.75;;;20.90;45.40;;;;;;4904099;29;20196;-81
2023/03/20 10:12:28;;;;;;;0.85;0.85;;;20.90;45.40;;;;;;4903627;29;20641;-80
2023/03/20 10:15:00;;;;;;;0.73;0.73;;;20.80;45.30;;;;;;4934798;29;20224;-80
2023/03/20 10:17:42;;;;;;;1.40;1.20;;;20.80;45.10;;;;;;4935052;29;20682;-80
2023/03/20 10:20:12;;;;;;;0.90;0.90;;;20.80;45.40;;;;;;4934976;29;20678;-80
2023/03/20 10:22:41;;;;;;;0.85;0.80;;;20.90;45.30;;;;;;4902687;29;20219;-80
2023/03/20 10:25:19;;;;;;;0.82;0.82;;;20.90;45.40;;;;;;4903753;29;20231;-81
2023/03/20 10:27:47;;;;;;;1.23;1.10;;;20.80;45.10;;;;;;4904160;29;20658;-81
2023/03/20 10:30:23;;;;;;;0.98;0.98;;;20.90;45.40;;;;;;4937183;29;20204;-81
2023/03/20 10:32:55;;;;;;;2.90;1.00;;;20.80;45.20;;;;;;4924219;29;20180;-81
2023/03/20 10:35:24;;;;;;;0.90;0.90;;;20.80;45.20;;;;;;4909424;29;20200;-81
2023/03/20 10:38:13;;;;;;;1.00;1.00;;;20.80;45.30;;;;;;4936172;29;20211;-81
2023/03/20 10:40:41;;;;;;;1.00;1.00;;;20.80;45.20;;;;;;4921617;29;20283;-80
2023/03/20 10:43:15;;;;;;;0.85;0.85;;;20.80;45.30;;;;;;4936359;29;20238;-80
2023/03/20 10:45:44;;;;;;;0.90;0.90;;;20.80;45.20;;;;;;4937034;29;20200;-80
2023/03/20 10:48:17;;;;;;;1.00;0.95;;;20.80;45.00;;;;;;4904911;29;20200;-80
2023/03/20 10:50:46;;;;;;;0.77;0.77;;;20.80;45.00;;;;;;4921452;29;20176;-80
2023/03/20 10:53:21;;;;;;;0.80;0.80;;;20.90;45.20;;;;;;4935355;29;20232;-80
2023/03/20 10:55:48;;;;;;;0.80;0.80;;;20.80;45.20;;;;;;4936352;29;20211;-80
2023/03/20 10:58:18;;;;;;;0.95;0.95;;;20.80;45.90;;;;;;4904010;29;20738;-80
2023/03/20 11:00:44;;;;;;;0.73;0.73;;;20.70;45.20;;;;;;4903754;29;20271;-80
2023/03/20 11:03:20;;;;;;;0.95;0.80;;;20.80;45.20;;;;;;4888819;29;20231;-81
2023/03/20 11:05:51;;;;;;;0.75;0.75;;;20.80;45.10;;;;;;4934798;29;20200;-81
2023/03/20 11:08:21;;;;;;;0.90;0.90;;;20.80;45.10;;;;;;4902805;29;20204;-81
2023/03/20 11:10:52;;;;;;;0.85;0.85;;;20.90;45.20;;;;;;4934045;29;20211;-81
2023/03/20 11:13:25;;;;;;;0.90;0.80;;;20.90;45.00;;;;;;4934773;29;20224;-81
2023/03/20 11:15:52;;;;;;;0.95;0.90;;;20.90;44.90;;;;;;4902275;29;20269;-80
2023/03/20 11:18:21;;;;;;;0.88;0.88;;;20.90;44.60;;;;;;4902950;29;20200;-81
2023/03/20 11:20:50;;;;;;;1.00;1.00;;;20.90;44.80;;;;;;4917905;29;20628;-81
2023/03/20 11:23:19;;;;;;;1.00;1.00;;;20.90;44.90;;;;;;4902110;29;20247;-81
2023/03/20 11:25:50;;;;;;;1.00;1.00;;;20.90;44.80;;;;;;4934204;29;20204;-80
2023/03/20 11:28:24;;;;;;;1.17;1.13;;;20.90;44.80;;;;;;4903424;29;20204;-80
2023/03/20 11:30:51;;;;;;;1.55;0.98;;;20.90;44.90;;;;;;4933974;29;20188;-80
2023/03/20 11:33:19;;;;;;;0.95;0.90;;;20.90;45.50;;;;;;4902343;29;20258;-80
2023/03/20 11:35:47;;;;;;;1.20;1.10;;;20.80;44.70;;;;;;4902274;29;20200;-80
2023/03/20 11:38:15;;;;;;;1.20;1.10;;;20.90;44.90;;;;;;4902517;29;20659;-81
2023/03/20 11:40:43;;;;;;;1.60;1.50;;;20.90;45.00;;;;;;4934792;29;20220;-81
2023/03/20 11:43:12;;;;;;;1.45;1.35;;;20.80;44.90;;;;;;4902040;29;20228;-81
2023/03/20 11:45:41;;;;;;;1.45;1.30;;;20.70;44.90;;;;;;4933763;29;20207;-81
2023/03/20 11:48:15;;;;;;;1.27;1.17;;;20.80;45.10;;;;;;4902475;29;20200;-81
2023/03/20 11:50:43;;;;;;;1.42;1.33;;;20.70;45.10;;;;;;4919009;29;20180;-81
2023/03/20 11:53:21;;;;;;;1.50;1.40;;;20.70;45.00;;;;;;4933683;29;20698;-81
2023/03/20 11:56:00;;;;;;;1.70;1.60;;;20.70;45.00;;;;;;4934148;29;20204;-81
2023/03/20 11:58:28;;;;;;;1.40;1.30;;;20.70;45.10;;;;;;4887134;29;20231;-81
2023/03/20 12:00:56;;;;;;;1.48;1.38;;;20.70;45.00;;;;;;4919334;29;20227;-81
2023/03/20 12:03:44;;;;;;;1.50;1.40;;;20.70;45.00;;;;;;4902420;29;20228;-81
2023/03/20 12:06:15;;;;;;;1.55;1.40;;;20.70;44.90;;;;;;4933068;29;20208;-81
2023/03/20 12:08:50;;;;;;;2.05;1.33;;;20.80;45.00;;;;;;4933656;29;20231;-81
2023/03/20 12:11:24;;;;;;;1.75;1.60;;;20.70;44.90;;;;;;4933568;29;20196;-81
2023/03/20 12:13:51;;;;;;;1.30;1.20;;;20.70;45.00;;;;;;4902482;29;20577;-81
2023/03/20 12:16:20;;;;;;;1.40;1.30;;;20.70;45.00;;;;;;4902061;29;20208;-81
2023/03/20 12:18:48;;;;;;;1.20;1.10;;;20.80;45.10;;;;;;4904678;29;20200;-81
2023/03/20 12:21:20;;;;;;;1.60;1.50;;;20.80;45.10;;;;;;4902188;29;20773;-81
2023/03/20 12:23:51;;;;;;;1.70;1.60;;;20.80;45.00;;;;;;4933432;29;20813;-80
2023/03/20 12:26:21;;;;;;;1.77;1.48;;;20.90;45.10;;;;;;4902151;29;20207;-81
2023/03/20 12:28:52;;;;;;;1.67;1.58;;;20.90;45.00;;;;;;4901681;29;20200;-81
2023/03/20 12:31:23;;;;;;;1.40;1.30;;;20.90;44.80;;;;;;4887372;29;20235;-80
2023/03/20 12:33:52;;;;;;;1.50;1.40;;;20.90;44.80;;;;;;4902031;29;20220;-80
2023/03/20 12:36:28;;;;;;;1.65;1.55;;;21.00;44.80;;;;;;4933945;29;20207;-80
2023/03/20 12:38:56;;;;;;;1.73;1.63;;;21.10;44.40;;;;;;4933592;29;20667;-80
2023/03/20 12:41:25;;;;;;;1.50;1.40;;;21.10;44.20;;;;;;4933134;29;20216;-80
2023/03/20 12:44:21;;;;;;;1.70;1.40;;;21.10;44.50;;;;;;4918817;29;20342;-80
2023/03/20 12:46:51;;;;;;;1.55;1.45;;;21.20;44.50;;;;;;4892467;29;20204;-80
2023/03/20 12:49:25;;;;;;;1.50;1.40;;;21.10;44.20;;;;;;4937211;29;20208;-80
2023/03/20 12:51:57;;;;;;;1.60;1.50;;;21.20;44.20;;;;;;4937047;29;20196;-80
2023/03/20 12:54:37;;;;;;;1.52;1.42;;;21.20;44.50;;;;;;4905049;29;20226;-80
2023/03/20 12:57:10;;;;;;;1.40;1.30;;;21.10;44.10;;;;;;4922227;29;20247;-80
2023/03/20 12:59:44;;;;;;;1.40;1.30;;;21.20;44.60;;;;;;4936237;29;20642;-80
2023/03/20 13:02:18;;;;;;;1.55;1.45;;;21.20;44.50;;;;;;4904240;29;20267;-80
2023/03/20 13:04:50;;;;;;;1.50;1.40;;;21.20;44.40;;;;;;4936538;29;20226;-80
2023/03/20 13:07:18;;;;;;;2.17;1.60;;;21.20;44.10;;;;;;4936489;29;20215;-80
2023/03/20 13:10:00;;;;;;;1.55;1.45;;;21.20;44.10;;;;;;4937113;29;20204;-80
2023/03/20 13:12:36;;;;;;;1.65;1.55;;;21.20;44.00;;;;;;4904163;29;20719;-80